sensor_id;sensor_type;location;lat;lon;timestamp;temperature;humidity
8643;DHT22;4359;49.358;11.256;2022-09-20T00:00:38;7.80;99.90
8643;DHT22;4359;49.358;11.256;2022-09-20T00:03:04;7.80;99.90
8643;DHT22;4359;49.358;11.256;2022-09-20T00:05:33;7.80;99.90
8643;DHT22;4359;49.358;11.256;2022-09-20T00:08:01;7.70;99.90
8643;DHT22;4359;49.358;11.256;2022-09-20T00:10:26;7.70;99.90
8643;DHT22;4359;49.358;11.256;2022-09-20T00:12:52;7.70;99.90
8643;DHT22;4359;49.358;11.256;2022-09-20T00:15:18;7.60;99.90
8643;DHT22;4359;49.358;11.256;2022-09-20T00:17:43;7.50;99.90
8643;DHT22;4359;49.358;11.256;2022-09-20T00:20:09;7.60;99.90
8643;DHT22;4359;49.358;11.256;2022-09-20T00:22:35;7.40;99.90
8643;DHT22;4359;49.358;11.256;2022-09-20T00:25:01;7.50;99.90
8643;DHT22;4359;49.358;11.256;2022-09-20T00:27:26;7.40;99.90
8643;DHT22;4359;49.358;11.256;2022-09-20T00:29:52;7.50;99.90
8643;DHT22;4359;49.358;11.256;2022-09-20T00:32:18;7.40;99.90
8643;DHT22;4359;49.358;11.256;2022-09-20T00:34:44;7.40;99.90
8643;DHT22;4359;49.358;11.256;2022-09-20T00:37:28;7.40;99.90
8643;DHT22;4359;49.358;11.256;2022-09-20T00:39:54;7.40;99.90
8643;DHT22;4359;49.358;11.256;2022-09-20T00:42:25;7.40;99.90
8643;DHT22;4359;49.358;11.256;2022-09-20T00:49:49;7.50;99.90
8643;DHT22;4359;49.358;11.256;2022-09-20T00:52:16;7.40;99.90
8643;DHT22;4359;49.358;11.256;2022-09-20T00:54:42;7.50;99.90
8643;DHT22;4359;49.358;11.256;2022-09-20T00:57:08;7.40;99.90
8643;DHT22;4359;49.358;11.256;2022-09-20T00:59:37;7.40;99.90
8643;DHT22;4359;49.358;11.256;2022-09-20T01:02:13;7.30;99.90
8643;DHT22;4359;49.358;11.256;2022-09-20T01:04:41;7.20;99.90
8643;DHT22;4359;49.358;11.256;2022-09-20T01:07:08;7.20;99.90
8643;DHT22;4359;49.358;11.256;2022-09-20T01:09:34;7.10;99.90
8643;DHT22;4359;49.358;11.256;2022-09-20T01:12:01;7.00;99.90
8643;DHT22;4359;49.358;11.256;2022-09-20T01:14:27;6.90;99.90
8643;DHT22;4359;49.358;11.256;2022-09-20T01:16:55;6.90;99.90
8643;DHT22;4359;49.358;11.256;2022-09-20T01:22:25;6.90;99.90
8643;DHT22;4359;49.358;11.256;2022-09-20T01:27:43;6.80;99.90
8643;DHT22;4359;49.358;11.256;2022-09-20T01:30:17;6.80;99.90
8643;DHT22;4359;49.358;11.256;2022-09-20T01:35:34;6.80;99.90
8643;DHT22;4359;49.358;11.256;2022-09-20T02:00:28;6.90;99.90
8643;DHT22;4359;49.358;11.256;2022-09-20T02:11:08;7.10;99.90
8643;DHT22;4359;49.358;11.256;2022-09-20T02:16:43;7.30;99.90
8643;DHT22;4359;49.358;11.256;2022-09-20T02:19:33;7.30;99.90
8643;DHT22;4359;49.358;11.256;2022-09-20T02:30:42;7.40;99.90
8643;DHT22;4359;49.358;11.256;2022-09-20T02:42:12;7.50;99.90
8643;DHT22;4359;49.358;11.256;2022-09-20T02:44:57;7.50;99.90
8643;DHT22;4359;49.358;11.256;2022-09-20T02:47:40;7.60;99.90
8643;DHT22;4359;49.358;11.256;2022-09-20T02:50:16;7.50;99.90
8643;DHT22;4359;49.358;11.256;2022-09-20T02:53:13;7.60;99.90
8643;DHT22;4359;49.358;11.256;2022-09-20T02:56:03;7.60;99.90
8643;DHT22;4359;49.358;11.256;2022-09-20T02:58:39;7.60;99.90
8643;DHT22;4359;49.358;11.256;2022-09-20T03:01:30;7.60;99.90
8643;DHT22;4359;49.358;11.256;2022-09-20T03:07:18;7.50;99.90
8643;DHT22;4359;49.358;11.256;2022-09-20T03:09:58;7.50;99.90
8643;DHT22;4359;49.358;11.256;2022-09-20T03:18:25;7.20;99.90
8643;DHT22;4359;49.358;11.256;2022-09-20T03:20:58;7.10;99.90
8643;DHT22;4359;49.358;11.256;2022-09-20T03:39:28;6.90;99.90
8643;DHT22;4359;49.358;11.256;2022-09-20T04:04:10;7.20;99.90
8643;DHT22;4359;49.358;11.256;2022-09-20T04:12:04;7.20;99.90
8643;DHT22;4359;49.358;11.256;2022-09-20T04:20:03;7.20;99.90
8643;DHT22;4359;49.358;11.256;2022-09-20T04:22:30;7.20;99.90
8643;DHT22;4359;49.358;11.256;2022-09-20T04:27:28;7.20;99.90
8643;DHT22;4359;49.358;11.256;2022-09-20T04:30:03;7.10;99.90
8643;DHT22;4359;49.358;11.256;2022-09-20T04:32:39;7.10;99.90
8643;DHT22;4359;49.358;11.256;2022-09-20T04:35:21;7.10;99.90
8643;DHT22;4359;49.358;11.256;2022-09-20T04:38:15;7.10;99.90
8643;DHT22;4359;49.358;11.256;2022-09-20T04:55:11;7.30;99.90
8643;DHT22;4359;49.358;11.256;2022-09-20T05:00:47;7.40;99.90
8643;DHT22;4359;49.358;11.256;2022-09-20T05:08:55;7.40;99.90
8643;DHT22;4359;49.358;11.256;2022-09-20T05:17:13;7.50;99.90
8643;DHT22;4359;49.358;11.256;2022-09-20T05:23:55;7.50;99.90
8643;DHT22;4359;49.358;11.256;2022-09-20T05:26:08;7.60;99.90
8643;DHT22;4359;49.358;11.256;2022-09-20T05:28:53;7.60;99.90
8643;DHT22;4359;49.358;11.256;2022-09-20T05:42:14;7.90;99.90
8643;DHT22;4359;49.358;11.256;2022-09-20T06:01:45;8.30;99.90
8643;DHT22;4359;49.358;11.256;2022-09-20T06:04:26;8.30;99.90
8643;DHT22;4359;49.358;11.256;2022-09-20T06:12:47;8.50;99.90
8643;DHT22;4359;49.358;11.256;2022-09-20T06:21:50;8.80;99.90
8643;DHT22;4359;49.358;11.256;2022-09-20T06:26:58;8.90;99.90
8643;DHT22;4359;49.358;11.256;2022-09-20T06:29:33;8.70;99.90
8643;DHT22;4359;49.358;11.256;2022-09-20T06:31:59;8.70;99.90
8643;DHT22;4359;49.358;11.256;2022-09-20T06:34:25;8.70;99.90
8643;DHT22;4359;49.358;11.256;2022-09-20T06:40:38;8.80;99.90
8643;DHT22;4359;49.358;11.256;2022-09-20T06:43:45;8.90;99.90
8643;DHT22;4359;49.358;11.256;2022-09-20T06:46:13;8.80;99.90
8643;DHT22;4359;49.358;11.256;2022-09-20T06:48:40;8.90;99.90
8643;DHT22;4359;49.358;11.256;2022-09-20T06:51:07;8.70;99.90
8643;DHT22;4359;49.358;11.256;2022-09-20T06:53:36;8.80;99.90
8643;DHT22;4359;49.358;11.256;2022-09-20T06:56:06;8.80;99.90
8643;DHT22;4359;49.358;11.256;2022-09-20T06:58:32;8.90;99.90
8643;DHT22;4359;49.358;11.256;2022-09-20T07:00:58;9.10;99.90
8643;DHT22;4359;49.358;11.256;2022-09-20T07:03:24;9.10;99.90
8643;DHT22;4359;49.358;11.256;2022-09-20T07:05:49;9.30;99.90
8643;DHT22;4359;49.358;11.256;2022-09-20T07:08:15;9.50;99.90
8643;DHT22;4359;49.358;11.256;2022-09-20T07:10:41;9.90;99.90
8643;DHT22;4359;49.358;11.256;2022-09-20T07:13:09;10.00;99.90
8643;DHT22;4359;49.358;11.256;2022-09-20T07:15:36;10.00;99.90
8643;DHT22;4359;49.358;11.256;2022-09-20T07:18:02;9.90;99.90
8643;DHT22;4359;49.358;11.256;2022-09-20T07:20:28;9.70;99.90
8643;DHT22;4359;49.358;11.256;2022-09-20T07:22:53;9.80;99.90
8643;DHT22;4359;49.358;11.256;2022-09-20T07:25:20;9.60;99.90
8643;DHT22;4359;49.358;11.256;2022-09-20T07:27:48;9.60;99.90
8643;DHT22;4359;49.358;11.256;2022-09-20T07:30:15;9.70;99.90
8643;DHT22;4359;49.358;11.256;2022-09-20T07:32:40;9.80;99.90
8643;DHT22;4359;49.358;11.256;2022-09-20T07:35:08;9.90;99.90
8643;DHT22;4359;49.358;11.256;2022-09-20T07:37:34;10.10;99.90
8643;DHT22;4359;49.358;11.256;2022-09-20T07:40:00;10.30;99.90
8643;DHT22;4359;49.358;11.256;2022-09-20T07:42:26;10.60;99.90
8643;DHT22;4359;49.358;11.256;2022-09-20T07:44:54;10.60;99.90
8643;DHT22;4359;49.358;11.256;2022-09-20T07:47:20;10.50;99.90
8643;DHT22;4359;49.358;11.256;2022-09-20T07:49:46;10.20;99.90
8643;DHT22;4359;49.358;11.256;2022-09-20T07:52:12;10.10;99.90
8643;DHT22;4359;49.358;11.256;2022-09-20T07:54:39;10.10;99.90
8643;DHT22;4359;49.358;11.256;2022-09-20T07:57:04;10.00;99.90
8643;DHT22;4359;49.358;11.256;2022-09-20T07:59:30;9.90;99.90
8643;DHT22;4359;49.358;11.256;2022-09-20T08:01:56;9.90;99.90
8643;DHT22;4359;49.358;11.256;2022-09-20T08:04:25;9.90;99.90
8643;DHT22;4359;49.358;11.256;2022-09-20T08:06:51;10.20;99.90
8643;DHT22;4359;49.358;11.256;2022-09-20T08:09:16;10.40;99.90
8643;DHT22;4359;49.358;11.256;2022-09-20T08:11:42;10.60;99.90
8643;DHT22;4359;49.358;11.256;2022-09-20T08:14:11;10.60;99.90
8643;DHT22;4359;49.358;11.256;2022-09-20T08:16:40;10.60;99.90
8643;DHT22;4359;49.358;11.256;2022-09-20T08:19:06;10.90;99.90
8643;DHT22;4359;49.358;11.256;2022-09-20T08:21:33;11.20;99.90
8643;DHT22;4359;49.358;11.256;2022-09-20T08:23:59;11.10;99.90
8643;DHT22;4359;49.358;11.256;2022-09-20T08:26:27;11.10;99.90
8643;DHT22;4359;49.358;11.256;2022-09-20T08:28:55;11.00;99.90
8643;DHT22;4359;49.358;11.256;2022-09-20T08:31:23;10.80;99.90
8643;DHT22;4359;49.358;11.256;2022-09-20T08:33:50;10.90;99.90
8643;DHT22;4359;49.358;11.256;2022-09-20T08:36:19;11.10;99.90
8643;DHT22;4359;49.358;11.256;2022-09-20T08:38:45;11.40;99.90
8643;DHT22;4359;49.358;11.256;2022-09-20T08:43:58;11.50;99.90
8643;DHT22;4359;49.358;11.256;2022-09-20T08:46:32;11.50;99.90
8643;DHT22;4359;49.358;11.256;2022-09-20T08:49:03;11.30;99.90
8643;DHT22;4359;49.358;11.256;2022-09-20T08:51:32;11.30;99.90
8643;DHT22;4359;49.358;11.256;2022-09-20T08:53:59;11.70;99.90
8643;DHT22;4359;49.358;11.256;2022-09-20T08:56:30;11.80;99.90
8643;DHT22;4359;49.358;11.256;2022-09-20T08:58:58;11.80;99.90
8643;DHT22;4359;49.358;11.256;2022-09-20T09:01:26;11.50;99.90
8643;DHT22;4359;49.358;11.256;2022-09-20T09:04:13;11.20;99.90
8643;DHT22;4359;49.358;11.256;2022-09-20T09:06:41;11.20;99.90
8643;DHT22;4359;49.358;11.256;2022-09-20T09:09:09;11.20;99.90
8643;DHT22;4359;49.358;11.256;2022-09-20T09:11:39;11.40;99.90
8643;DHT22;4359;49.358;11.256;2022-09-20T09:14:12;11.50;99.90
8643;DHT22;4359;49.358;11.256;2022-09-20T09:17:00;11.60;99.90
8643;DHT22;4359;49.358;11.256;2022-09-20T09:19:51;11.50;99.90
8643;DHT22;4359;49.358;11.256;2022-09-20T09:22:20;11.50;99.90
8643;DHT22;4359;49.358;11.256;2022-09-20T09:28:10;12.60;99.90
8643;DHT22;4359;49.358;11.256;2022-09-20T09:30:38;13.20;99.90
8643;DHT22;4359;49.358;11.256;2022-09-20T09:38:20;13.60;99.90
8643;DHT22;4359;49.358;11.256;2022-09-20T09:40:53;13.90;99.90
8643;DHT22;4359;49.358;11.256;2022-09-20T09:43:28;13.90;99.90
8643;DHT22;4359;49.358;11.256;2022-09-20T09:46:18;13.40;99.90
8643;DHT22;4359;49.358;11.256;2022-09-20T09:48:45;12.60;99.90
8643;DHT22;4359;49.358;11.256;2022-09-20T09:51:17;13.10;99.90
8643;DHT22;4359;49.358;11.256;2022-09-20T09:53:44;13.30;99.90
8643;DHT22;4359;49.358;11.256;2022-09-20T09:56:29;12.80;99.90
8643;DHT22;4359;49.358;11.256;2022-09-20T09:59:28;12.00;99.90
8643;DHT22;4359;49.358;11.256;2022-09-20T10:09:54;12.60;99.90
8643;DHT22;4359;49.358;11.256;2022-09-20T10:12:36;12.50;99.90
8643;DHT22;4359;49.358;11.256;2022-09-20T10:15:13;13.40;99.90
8643;DHT22;4359;49.358;11.256;2022-09-20T10:26:18;12.70;99.90
8643;DHT22;4359;49.358;11.256;2022-09-20T10:31:59;12.30;99.90
8643;DHT22;4359;49.358;11.256;2022-09-20T10:40:36;12.90;99.90
8643;DHT22;4359;49.358;11.256;2022-09-20T10:43:45;13.60;99.90
8643;DHT22;4359;49.358;11.256;2022-09-20T10:46:57;14.30;99.90
8643;DHT22;4359;49.358;11.256;2022-09-20T10:49:55;13.60;99.90
8643;DHT22;4359;49.358;11.256;2022-09-20T10:55:51;12.80;99.90
8643;DHT22;4359;49.358;11.256;2022-09-20T11:09:35;11.90;99.90
8643;DHT22;4359;49.358;11.256;2022-09-20T11:12:16;12.00;99.90
8643;DHT22;4359;49.358;11.256;2022-09-20T11:15:02;11.80;99.90
8643;DHT22;4359;49.358;11.256;2022-09-20T11:17:37;12.00;99.90
8643;DHT22;4359;49.358;11.256;2022-09-20T11:20:10;12.30;99.90
8643;DHT22;4359;49.358;11.256;2022-09-20T11:22:46;13.00;99.90
8643;DHT22;4359;49.358;11.256;2022-09-20T11:28:10;14.70;99.90
8643;DHT22;4359;49.358;11.256;2022-09-20T11:31:03;14.30;99.90
8643;DHT22;4359;49.358;11.256;2022-09-20T11:33:31;13.90;99.90
8643;DHT22;4359;49.358;11.256;2022-09-20T11:36:03;14.20;99.90
8643;DHT22;4359;49.358;11.256;2022-09-20T11:38:38;14.50;99.90
8643;DHT22;4359;49.358;11.256;2022-09-20T11:41:26;14.70;99.90
8643;DHT22;4359;49.358;11.256;2022-09-20T11:43:53;14.80;99.90
8643;DHT22;4359;49.358;11.256;2022-09-20T11:46:26;14.90;99.90
8643;DHT22;4359;49.358;11.256;2022-09-20T11:49:03;14.90;99.90
8643;DHT22;4359;49.358;11.256;2022-09-20T11:56:51;13.10;99.90
8643;DHT22;4359;49.358;11.256;2022-09-20T11:59:39;12.90;99.90
8643;DHT22;4359;49.358;11.256;2022-09-20T12:04:47;13.00;99.90
8643;DHT22;4359;49.358;11.256;2022-09-20T12:09:45;13.10;99.90
8643;DHT22;4359;49.358;11.256;2022-09-20T12:12:45;12.90;99.90
8643;DHT22;4359;49.358;11.256;2022-09-20T12:36:42;12.70;99.90
8643;DHT22;4359;49.358;11.256;2022-09-20T12:42:21;13.30;99.90
8643;DHT22;4359;49.358;11.256;2022-09-20T12:45:36;13.20;99.90
8643;DHT22;4359;49.358;11.256;2022-09-20T12:47:37;13.00;99.90
8643;DHT22;4359;49.358;11.256;2022-09-20T12:50:23;13.70;99.90
8643;DHT22;4359;49.358;11.256;2022-09-20T12:53:13;13.70;99.90
8643;DHT22;4359;49.358;11.256;2022-09-20T12:55:52;13.30;99.90
8643;DHT22;4359;49.358;11.256;2022-09-20T12:58:30;13.30;99.90
8643;DHT22;4359;49.358;11.256;2022-09-20T13:03:41;13.20;99.90
8643;DHT22;4359;49.358;11.256;2022-09-20T13:14:13;14.90;99.90
8643;DHT22;4359;49.358;11.256;2022-09-20T13:16:55;14.60;99.90
8643;DHT22;4359;49.358;11.256;2022-09-20T13:19:27;13.80;99.90
8643;DHT22;4359;49.358;11.256;2022-09-20T13:22:02;13.20;99.90
8643;DHT22;4359;49.358;11.256;2022-09-20T13:24:36;13.10;99.90
8643;DHT22;4359;49.358;11.256;2022-09-20T13:27:20;13.70;99.90
8643;DHT22;4359;49.358;11.256;2022-09-20T13:29:47;13.80;99.90
8643;DHT22;4359;49.358;11.256;2022-09-20T13:32:25;13.90;99.90
8643;DHT22;4359;49.358;11.256;2022-09-20T13:40:22;15.10;99.90
8643;DHT22;4359;49.358;11.256;2022-09-20T13:42:50;15.30;99.90
8643;DHT22;4359;49.358;11.256;2022-09-20T13:45:18;15.10;99.90
8643;DHT22;4359;49.358;11.256;2022-09-20T13:47:49;15.00;99.90
8643;DHT22;4359;49.358;11.256;2022-09-20T13:52:54;14.20;99.90
8643;DHT22;4359;49.358;11.256;2022-09-20T13:55:35;13.60;99.90
8643;DHT22;4359;49.358;11.256;2022-09-20T13:58:16;13.50;99.90
8643;DHT22;4359;49.358;11.256;2022-09-20T14:01:05;13.80;99.90
8643;DHT22;4359;49.358;11.256;2022-09-20T14:03:33;13.70;99.90
8643;DHT22;4359;49.358;11.256;2022-09-20T14:06:09;13.70;99.90
8643;DHT22;4359;49.358;11.256;2022-09-20T14:08:48;13.60;99.90
8643;DHT22;4359;49.358;11.256;2022-09-20T14:11:26;13.50;99.90
8643;DHT22;4359;49.358;11.256;2022-09-20T14:13:55;13.20;99.90
8643;DHT22;4359;49.358;11.256;2022-09-20T14:16:30;13.10;99.90
8643;DHT22;4359;49.358;11.256;2022-09-20T14:18:57;13.10;99.90
8643;DHT22;4359;49.358;11.256;2022-09-20T14:21:25;13.10;99.90
8643;DHT22;4359;49.358;11.256;2022-09-20T14:26:25;13.10;99.90
8643;DHT22;4359;49.358;11.256;2022-09-20T14:28:52;13.20;99.90
8643;DHT22;4359;49.358;11.256;2022-09-20T14:31:24;13.10;99.90
8643;DHT22;4359;49.358;11.256;2022-09-20T14:34:00;13.00;99.90
8643;DHT22;4359;49.358;11.256;2022-09-20T14:36:28;13.00;99.90
8643;DHT22;4359;49.358;11.256;2022-09-20T14:38:57;13.00;99.90
8643;DHT22;4359;49.358;11.256;2022-09-20T14:41:25;12.90;99.90
8643;DHT22;4359;49.358;11.256;2022-09-20T14:43:55;12.90;99.90
8643;DHT22;4359;49.358;11.256;2022-09-20T14:46:28;13.00;99.90
8643;DHT22;4359;49.358;11.256;2022-09-20T14:49:29;13.00;99.90
8643;DHT22;4359;49.358;11.256;2022-09-20T14:55:15;13.10;99.90
8643;DHT22;4359;49.358;11.256;2022-09-20T14:57:41;13.20;99.90
8643;DHT22;4359;49.358;11.256;2022-09-20T15:00:11;13.30;99.90
8643;DHT22;4359;49.358;11.256;2022-09-20T15:02:38;13.40;99.90
8643;DHT22;4359;49.358;11.256;2022-09-20T15:05:15;13.50;99.90
8643;DHT22;4359;49.358;11.256;2022-09-20T15:07:40;13.50;99.90
8643;DHT22;4359;49.358;11.256;2022-09-20T15:10:11;13.40;99.90
8643;DHT22;4359;49.358;11.256;2022-09-20T15:12:37;13.50;99.90
8643;DHT22;4359;49.358;11.256;2022-09-20T15:15:03;13.70;99.90
8643;DHT22;4359;49.358;11.256;2022-09-20T15:17:28;13.70;99.90
8643;DHT22;4359;49.358;11.256;2022-09-20T15:19:54;13.80;99.90
8643;DHT22;4359;49.358;11.256;2022-09-20T15:22:20;13.90;99.90
8643;DHT22;4359;49.358;11.256;2022-09-20T15:24:46;13.80;99.90
8643;DHT22;4359;49.358;11.256;2022-09-20T15:27:12;13.60;99.90
8643;DHT22;4359;49.358;11.256;2022-09-20T15:29:38;13.50;99.90
8643;DHT22;4359;49.358;11.256;2022-09-20T15:32:04;13.40;99.90
8643;DHT22;4359;49.358;11.256;2022-09-20T15:34:31;13.30;99.90
8643;DHT22;4359;49.358;11.256;2022-09-20T15:36:56;13.30;99.90
8643;DHT22;4359;49.358;11.256;2022-09-20T15:39:22;13.30;99.90
8643;DHT22;4359;49.358;11.256;2022-09-20T15:41:51;13.40;99.90
8643;DHT22;4359;49.358;11.256;2022-09-20T15:44:17;13.60;99.90
8643;DHT22;4359;49.358;11.256;2022-09-20T15:46:43;13.80;99.90
8643;DHT22;4359;49.358;11.256;2022-09-20T15:49:10;13.90;99.90
8643;DHT22;4359;49.358;11.256;2022-09-20T15:51:36;14.10;99.90
8643;DHT22;4359;49.358;11.256;2022-09-20T15:54:04;13.80;99.90
8643;DHT22;4359;49.358;11.256;2022-09-20T15:56:35;13.80;99.90
8643;DHT22;4359;49.358;11.256;2022-09-20T15:59:03;13.70;99.90
8643;DHT22;4359;49.358;11.256;2022-09-20T16:01:41;13.60;99.90
8643;DHT22;4359;49.358;11.256;2022-09-20T16:04:11;13.50;99.90
8643;DHT22;4359;49.358;11.256;2022-09-20T16:06:38;13.20;99.90
8643;DHT22;4359;49.358;11.256;2022-09-20T16:09:05;12.60;99.90
8643;DHT22;4359;49.358;11.256;2022-09-20T16:11:31;12.00;99.90
8643;DHT22;4359;49.358;11.256;2022-09-20T16:13:57;11.40;99.90
8643;DHT22;4359;49.358;11.256;2022-09-20T16:16:25;11.10;99.90
8643;DHT22;4359;49.358;11.256;2022-09-20T16:18:50;10.80;99.90
8643;DHT22;4359;49.358;11.256;2022-09-20T16:21:37;10.60;99.90
8643;DHT22;4359;49.358;11.256;2022-09-20T16:24:04;10.50;99.90
8643;DHT22;4359;49.358;11.256;2022-09-20T16:26:31;10.30;99.90
8643;DHT22;4359;49.358;11.256;2022-09-20T16:28:58;10.10;99.90
8643;DHT22;4359;49.358;11.256;2022-09-20T16:31:37;10.00;99.90
8643;DHT22;4359;49.358;11.256;2022-09-20T16:34:12;10.00;99.90
8643;DHT22;4359;49.358;11.256;2022-09-20T16:36:41;9.90;99.90
8643;DHT22;4359;49.358;11.256;2022-09-20T16:39:08;10.00;99.90
8643;DHT22;4359;49.358;11.256;2022-09-20T16:41:34;9.80;99.90
8643;DHT22;4359;49.358;11.256;2022-09-20T16:44:00;9.80;99.90
8643;DHT22;4359;49.358;11.256;2022-09-20T16:46:26;9.70;99.90
8643;DHT22;4359;49.358;11.256;2022-09-20T16:48:53;9.60;99.90
8643;DHT22;4359;49.358;11.256;2022-09-20T16:51:20;9.60;99.90
8643;DHT22;4359;49.358;11.256;2022-09-20T16:53:48;9.60;99.90
8643;DHT22;4359;49.358;11.256;2022-09-20T16:56:21;9.50;99.90
8643;DHT22;4359;49.358;11.256;2022-09-20T16:58:48;9.50;99.90
8643;DHT22;4359;49.358;11.256;2022-09-20T17:01:14;9.50;99.90
8643;DHT22;4359;49.358;11.256;2022-09-20T17:03:40;9.40;99.90
8643;DHT22;4359;49.358;11.256;2022-09-20T17:06:07;9.40;99.90
8643;DHT22;4359;49.358;11.256;2022-09-20T17:08:34;9.40;99.90
8643;DHT22;4359;49.358;11.256;2022-09-20T17:11:25;9.40;99.90
8643;DHT22;4359;49.358;11.256;2022-09-20T17:13:50;9.40;99.90
8643;DHT22;4359;49.358;11.256;2022-09-20T17:16:19;9.40;99.90
8643;DHT22;4359;49.358;11.256;2022-09-20T17:18:45;9.50;99.90
8643;DHT22;4359;49.358;11.256;2022-09-20T17:21:13;9.50;99.90
8643;DHT22;4359;49.358;11.256;2022-09-20T17:23:47;9.30;99.90
8643;DHT22;4359;49.358;11.256;2022-09-20T17:26:16;9.30;99.90
8643;DHT22;4359;49.358;11.256;2022-09-20T17:28:44;9.30;99.90
8643;DHT22;4359;49.358;11.256;2022-09-20T17:31:15;9.10;99.90
8643;DHT22;4359;49.358;11.256;2022-09-20T17:33:41;9.20;99.90
8643;DHT22;4359;49.358;11.256;2022-09-20T17:36:08;9.10;99.90
8643;DHT22;4359;49.358;11.256;2022-09-20T17:38:36;9.10;99.90
8643;DHT22;4359;49.358;11.256;2022-09-20T17:41:17;9.10;99.90
8643;DHT22;4359;49.358;11.256;2022-09-20T17:43:44;9.00;99.90
8643;DHT22;4359;49.358;11.256;2022-09-20T17:46:13;8.90;99.90
8643;DHT22;4359;49.358;11.256;2022-09-20T17:48:40;8.80;99.90
8643;DHT22;4359;49.358;11.256;2022-09-20T17:51:07;8.70;99.90
8643;DHT22;4359;49.358;11.256;2022-09-20T17:53:34;8.60;99.90
8643;DHT22;4359;49.358;11.256;2022-09-20T17:56:00;8.50;99.90
8643;DHT22;4359;49.358;11.256;2022-09-20T17:58:27;8.40;99.90
8643;DHT22;4359;49.358;11.256;2022-09-20T18:00:52;8.40;99.90
8643;DHT22;4359;49.358;11.256;2022-09-20T18:03:23;8.40;99.90
8643;DHT22;4359;49.358;11.256;2022-09-20T18:05:50;8.40;99.90
8643;DHT22;4359;49.358;11.256;2022-09-20T18:08:16;8.50;99.90
8643;DHT22;4359;49.358;11.256;2022-09-20T18:10:55;8.50;99.90
8643;DHT22;4359;49.358;11.256;2022-09-20T18:13:21;8.50;99.90
8643;DHT22;4359;49.358;11.256;2022-09-20T18:15:47;8.40;99.90
8643;DHT22;4359;49.358;11.256;2022-09-20T18:18:13;8.30;99.90
8643;DHT22;4359;49.358;11.256;2022-09-20T18:20:38;8.20;99.90
8643;DHT22;4359;49.358;11.256;2022-09-20T18:23:04;8.00;99.90
8643;DHT22;4359;49.358;11.256;2022-09-20T18:25:30;7.90;99.90
8643;DHT22;4359;49.358;11.256;2022-09-20T18:28:16;7.70;99.90
8643;DHT22;4359;49.358;11.256;2022-09-20T18:30:42;7.70;99.90
8643;DHT22;4359;49.358;11.256;2022-09-20T18:33:11;7.70;99.90
8643;DHT22;4359;49.358;11.256;2022-09-20T18:35:37;7.50;99.90
8643;DHT22;4359;49.358;11.256;2022-09-20T18:38:07;7.40;99.90
8643;DHT22;4359;49.358;11.256;2022-09-20T18:40:33;7.30;99.90
8643;DHT22;4359;49.358;11.256;2022-09-20T18:43:01;7.40;99.90
8643;DHT22;4359;49.358;11.256;2022-09-20T18:45:28;7.50;99.90
8643;DHT22;4359;49.358;11.256;2022-09-20T18:47:53;7.50;99.90
8643;DHT22;4359;49.358;11.256;2022-09-20T18:50:22;7.40;99.90
8643;DHT22;4359;49.358;11.256;2022-09-20T18:52:51;7.40;99.90
8643;DHT22;4359;49.358;11.256;2022-09-20T18:55:17;7.20;99.90
8643;DHT22;4359;49.358;11.256;2022-09-20T18:57:43;7.10;99.90
8643;DHT22;4359;49.358;11.256;2022-09-20T19:00:12;7.00;99.90
8643;DHT22;4359;49.358;11.256;2022-09-20T19:05:32;6.80;99.90
8643;DHT22;4359;49.358;11.256;2022-09-20T19:13:11;6.60;99.90
8643;DHT22;4359;49.358;11.256;2022-09-20T19:24:46;6.30;99.90
8643;DHT22;4359;49.358;11.256;2022-09-20T19:27:13;6.30;99.90
8643;DHT22;4359;49.358;11.256;2022-09-20T19:29:39;6.20;99.90
8643;DHT22;4359;49.358;11.256;2022-09-20T19:32:08;6.20;99.90
8643;DHT22;4359;49.358;11.256;2022-09-20T19:34:36;6.10;99.90
8643;DHT22;4359;49.358;11.256;2022-09-20T19:50:52;6.20;99.90
8643;DHT22;4359;49.358;11.256;2022-09-20T19:53:20;6.20;99.90
8643;DHT22;4359;49.358;11.256;2022-09-20T19:56:02;6.10;99.90
8643;DHT22;4359;49.358;11.256;2022-09-20T19:58:28;6.10;99.90
8643;DHT22;4359;49.358;11.256;2022-09-20T20:00:54;6.10;99.90
8643;DHT22;4359;49.358;11.256;2022-09-20T20:03:20;6.00;99.90
8643;DHT22;4359;49.358;11.256;2022-09-20T20:06:12;6.00;99.90
8643;DHT22;4359;49.358;11.256;2022-09-20T20:09:07;6.00;99.90
8643;DHT22;4359;49.358;11.256;2022-09-20T20:12:14;5.90;99.90
8643;DHT22;4359;49.358;11.256;2022-09-20T20:26:01;6.00;99.90
8643;DHT22;4359;49.358;11.256;2022-09-20T20:28:19;6.00;99.90
8643;DHT22;4359;49.358;11.256;2022-09-20T20:30:45;5.90;99.90
8643;DHT22;4359;49.358;11.256;2022-09-20T20:33:16;6.00;99.90
8643;DHT22;4359;49.358;11.256;2022-09-20T20:35:50;6.00;99.90
8643;DHT22;4359;49.358;11.256;2022-09-20T20:38:17;6.00;99.90
8643;DHT22;4359;49.358;11.256;2022-09-20T20:40:43;6.00;99.90
8643;DHT22;4359;49.358;11.256;2022-09-20T20:43:08;6.00;99.90
8643;DHT22;4359;49.358;11.256;2022-09-20T20:45:34;6.00;99.90
8643;DHT22;4359;49.358;11.256;2022-09-20T20:48:00;6.00;99.90
8643;DHT22;4359;49.358;11.256;2022-09-20T20:50:26;5.90;99.90
8643;DHT22;4359;49.358;11.256;2022-09-20T20:52:55;5.80;99.90
8643;DHT22;4359;49.358;11.256;2022-09-20T20:55:22;5.80;99.90
8643;DHT22;4359;49.358;11.256;2022-09-20T20:57:52;5.80;99.90
8643;DHT22;4359;49.358;11.256;2022-09-20T21:00:23;5.70;99.90
8643;DHT22;4359;49.358;11.256;2022-09-20T21:02:58;5.70;99.90
8643;DHT22;4359;49.358;11.256;2022-09-20T21:05:25;5.70;99.90
8643;DHT22;4359;49.358;11.256;2022-09-20T21:07:52;5.60;99.90
8643;DHT22;4359;49.358;11.256;2022-09-20T21:10:20;5.50;99.90
8643;DHT22;4359;49.358;11.256;2022-09-20T21:12:47;5.40;99.90
8643;DHT22;4359;49.358;11.256;2022-09-20T21:15:15;5.30;99.90
8643;DHT22;4359;49.358;11.256;2022-09-20T21:17:42;5.30;99.90
8643;DHT22;4359;49.358;11.256;2022-09-20T21:20:14;5.20;99.90
8643;DHT22;4359;49.358;11.256;2022-09-20T21:22:39;5.20;99.90
8643;DHT22;4359;49.358;11.256;2022-09-20T21:25:06;5.10;99.90
8643;DHT22;4359;49.358;11.256;2022-09-20T21:27:32;5.10;99.90
8643;DHT22;4359;49.358;11.256;2022-09-20T21:30:00;5.00;99.90
8643;DHT22;4359;49.358;11.256;2022-09-20T21:32:27;5.00;99.90
8643;DHT22;4359;49.358;11.256;2022-09-20T21:34:52;5.00;99.90
8643;DHT22;4359;49.358;11.256;2022-09-20T21:37:18;5.10;99.90
8643;DHT22;4359;49.358;11.256;2022-09-20T21:39:44;5.10;99.90
8643;DHT22;4359;49.358;11.256;2022-09-20T21:42:11;5.10;99.90
8643;DHT22;4359;49.358;11.256;2022-09-20T21:44:38;5.10;99.90
8643;DHT22;4359;49.358;11.256;2022-09-20T21:47:05;5.10;99.90
8643;DHT22;4359;49.358;11.256;2022-09-20T21:49:32;5.00;99.90
8643;DHT22;4359;49.358;11.256;2022-09-20T21:51:57;5.00;99.90
8643;DHT22;4359;49.358;11.256;2022-09-20T21:54:23;4.90;99.90
8643;DHT22;4359;49.358;11.256;2022-09-20T21:56:49;4.80;99.90
8643;DHT22;4359;49.358;11.256;2022-09-20T21:59:17;4.70;99.90
8643;DHT22;4359;49.358;11.256;2022-09-20T22:01:44;4.70;99.90
8643;DHT22;4359;49.358;11.256;2022-09-20T22:04:11;4.60;99.90
8643;DHT22;4359;49.358;11.256;2022-09-20T22:06:38;4.60;99.90
8643;DHT22;4359;49.358;11.256;2022-09-20T22:09:13;4.60;99.90
8643;DHT22;4359;49.358;11.256;2022-09-20T22:11:41;4.60;99.90
8643;DHT22;4359;49.358;11.256;2022-09-20T22:14:09;4.60;99.90
8643;DHT22;4359;49.358;11.256;2022-09-20T22:16:39;4.50;99.90
8643;DHT22;4359;49.358;11.256;2022-09-20T22:19:07;4.40;99.90